createdAt,value
2019-02-07T00:01:36.120Z,100230.98
2019-02-07T00:04:09.852Z,100240.64
2019-02-07T00:06:43.460Z,100241.43
2019-02-07T00:09:17.348Z,100246.38
2019-02-07T00:11:51.291Z,100248.36
2019-02-07T00:14:25.598Z,100254.30
2019-02-07T00:16:59.327Z,100257.22
2019-02-07T00:19:33.106Z,100255.23
2019-02-07T00:22:08.780Z,100277.06
2019-02-07T00:24:43.189Z,100278.29
2019-02-07T00:27:18.939Z,100281.37
2019-02-07T00:29:53.995Z,100279.36
2019-02-07T00:32:28.671Z,100275.05
2019-02-07T00:35:02.339Z,100275.30
2019-02-07T00:37:37.382Z,100267.70
2019-02-07T00:40:13.678Z,100270.16
2019-02-07T00:42:47.440Z,100271.88
2019-02-07T00:45:21.556Z,100278.31
2019-02-07T00:47:56.393Z,100283.55
2019-02-07T00:50:31.181Z,100286.88
2019-02-07T00:53:04.730Z,100288.05
2019-02-07T00:55:38.374Z,100291.74
2019-02-07T00:58:12.911Z,100295.47
2019-02-07T01:00:46.661Z,100288.22
2019-02-07T01:03:20.516Z,100291.44
2019-02-07T01:05:54.196Z,100296.28
2019-02-07T01:08:27.850Z,100304.87
2019-02-07T01:11:01.725Z,100306.84
2019-02-07T01:13:41.994Z,100304.12
2019-02-07T01:16:15.576Z,100307.42
2019-02-07T01:18:49.135Z,100308.02
2019-02-07T01:21:22.707Z,100312.59
2019-02-07T01:23:57.335Z,100320.17
2019-02-07T01:26:30.941Z,100315.31
2019-02-07T01:29:04.628Z,100311.37
2019-02-07T01:31:38.462Z,100307.08
2019-02-07T01:34:13.755Z,100303.32
2019-02-07T01:36:48.314Z,100292.64
2019-02-07T01:39:22.008Z,100300.41
2019-02-07T01:41:57.232Z,100304.09
2019-02-07T01:44:31.712Z,100291.28
2019-02-07T01:47:05.542Z,100294.83
2019-02-07T01:49:39.239Z,100306.31
2019-02-07T01:52:14.712Z,100304.08
2019-02-07T01:54:48.174Z,100306.20
2019-02-07T01:57:21.752Z,100302.99
2019-02-07T01:59:55.293Z,100313.05
2019-02-07T02:02:28.929Z,100294.89
2019-02-07T02:05:03.928Z,100300.23
2019-02-07T02:07:37.533Z,100294.45
2019-02-07T02:10:19.719Z,100299.92
2019-02-07T02:12:53.797Z,100301.48
2019-02-07T02:15:27.706Z,100301.84
2019-02-07T02:18:01.199Z,100289.86
2019-02-07T02:20:36.004Z,100303.06
2019-02-07T02:23:09.634Z,100299.86
2019-02-07T02:25:44.837Z,100312.75
2019-02-07T02:28:18.498Z,100304.25
2019-02-07T02:30:53.675Z,100305.16
2019-02-07T02:33:27.249Z,100305.16
2019-02-07T02:36:02.548Z,100297.08
2019-02-07T02:38:37.307Z,100288.18
2019-02-07T02:41:11.337Z,100303.89
2019-02-07T02:43:44.886Z,100294.91
2019-02-07T02:46:18.453Z,100303.07
2019-02-07T02:48:51.987Z,100295.08
2019-02-07T02:51:25.399Z,100297.05
2019-02-07T02:53:58.971Z,100282.53
2019-02-07T02:56:32.426Z,100288.53
2019-02-07T02:59:06.735Z,100292.64
2019-02-07T03:01:40.295Z,100288.73
2019-02-07T03:04:15.517Z,100273.23
2019-02-07T03:06:49.165Z,100278.53
2019-02-07T03:09:22.919Z,100270.37
2019-02-07T03:11:56.609Z,100273.38
2019-02-07T03:14:30.336Z,100283.09
2019-02-07T03:17:04.132Z,100272.09
2019-02-07T03:19:38.060Z,100270.75
2019-02-07T03:22:12.092Z,100264.34
2019-02-07T03:24:45.943Z,100264.34
2019-02-07T03:27:19.535Z,100252.34
2019-02-07T03:29:53.206Z,100258.05
2019-02-07T03:32:27.880Z,100245.39
2019-02-07T03:35:03.675Z,100260.77
2019-02-07T03:37:39.872Z,100248.90
2019-02-07T03:40:15.223Z,100243.91
2019-02-07T03:42:49.241Z,100248.66
2019-02-07T03:45:23.436Z,100242.80
2019-02-07T03:47:57.469Z,100231.03
2019-02-07T03:50:31.639Z,100231.50
2019-02-07T03:53:07.412Z,100233.30
2019-02-07T03:55:44.997Z,100227.84
2019-02-07T03:58:20.500Z,100222.84
2019-02-07T04:00:56.488Z,100224.51
2019-02-07T04:03:32.416Z,100225.14
2019-02-07T04:06:09.387Z,100221.61
2019-02-07T04:08:45.151Z,100227.58
2019-02-07T04:11:21.102Z,100210.56
2019-02-07T04:13:56.989Z,100214.73
2019-02-07T04:16:33.044Z,100212.20
2019-02-07T04:19:08.925Z,100206.49
2019-02-07T04:21:44.484Z,100205.12
2019-02-07T04:24:20.582Z,100204.50
2019-02-07T04:26:56.315Z,100195.63
2019-02-07T04:29:32.153Z,100207.95
2019-02-07T04:32:08.004Z,100192.97
2019-02-07T04:34:45.674Z,100188.57
2019-02-07T04:37:21.442Z,100191.41
2019-02-07T04:39:57.346Z,100194.68
2019-02-07T04:42:35.751Z,100183.72
2019-02-07T04:45:12.284Z,100186.06
2019-02-07T04:47:48.880Z,100189.90
2019-02-07T04:50:30.429Z,100189.75
2019-02-07T04:53:04.739Z,100183.20
2019-02-07T04:55:38.994Z,100185.46
2019-02-07T04:58:13.031Z,100199.74
2019-02-07T05:00:47.429Z,100186.85
2019-02-07T05:03:21.727Z,100184.08
2019-02-07T05:05:56.124Z,100184.33
2019-02-07T05:08:36.237Z,100174.98
2019-02-07T05:11:11.460Z,100172.94
2019-02-07T05:13:46.945Z,100163.95
2019-02-07T05:16:20.839Z,100169.20
2019-02-07T05:18:54.961Z,100174.56
2019-02-07T05:21:28.927Z,100165.65
2019-02-07T05:24:02.899Z,100165.80
2019-02-07T05:26:36.725Z,100162.64
2019-02-07T05:29:10.630Z,100163.85
2019-02-07T05:31:44.269Z,100159.64
2019-02-07T05:34:18.513Z,100159.64
2019-02-07T05:36:52.765Z,100155.43
2019-02-07T05:39:26.843Z,100150.88
2019-02-07T05:42:01.306Z,100155.30
2019-02-07T05:44:35.713Z,100160.95
2019-02-07T05:47:10.339Z,100161.02
2019-02-07T05:49:46.951Z,100154.09
2019-02-07T05:52:21.462Z,100152.56
2019-02-07T05:54:57.448Z,100157.79
2019-02-07T05:57:32.187Z,100163.11
2019-02-07T06:00:09.931Z,100157.60
2019-02-07T06:02:44.460Z,100161.08
2019-02-07T06:05:19.090Z,100171.41
2019-02-07T06:07:54.641Z,100168.63
2019-02-07T06:10:29.502Z,100159.56
2019-02-07T06:13:04.310Z,100160.52
2019-02-07T06:15:39.611Z,100157.72
2019-02-07T06:18:16.103Z,100167.45
2019-02-07T06:20:51.537Z,100172.15
2019-02-07T06:23:26.643Z,100166.97
2019-02-07T06:26:01.747Z,100168.69
2019-02-07T06:28:36.844Z,100162.44
2019-02-07T06:31:11.695Z,100150.78
2019-02-07T06:33:46.361Z,100158.13
2019-02-07T06:36:21.537Z,100151.78
2019-02-07T06:38:56.182Z,100158.16
2019-02-07T06:41:34.277Z,100160.68
2019-02-07T06:44:08.679Z,100163.45
2019-02-07T06:46:43.246Z,100165.79
2019-02-07T06:49:17.757Z,100183.70
2019-02-07T06:51:54.587Z,100169.05
2019-02-07T06:54:29.547Z,100166.92
2019-02-07T06:57:04.719Z,100181.98
2019-02-07T06:59:41.029Z,100168.94
2019-02-07T07:02:15.378Z,100183.37
2019-02-07T07:04:51.299Z,100183.97
2019-02-07T07:07:27.406Z,100183.80
2019-02-07T07:10:04.421Z,100191.48
2019-02-07T07:12:38.636Z,100195.83
2019-02-07T07:15:16.456Z,100190.24
2019-02-07T07:18:10.639Z,100186.23
2019-02-07T07:20:45.380Z,100191.72
2019-02-07T07:23:19.699Z,100185.42
2019-02-07T07:25:55.493Z,100186.84
2019-02-07T07:28:30.746Z,100186.13
2019-02-07T07:31:05.237Z,100186.63
2019-02-07T07:33:39.399Z,100184.98
2019-02-07T07:36:16.189Z,100187.48
2019-02-07T07:38:50.663Z,100188.59
2019-02-07T07:41:27.044Z,100188.73
2019-02-07T07:44:02.221Z,100186.63
2019-02-07T07:46:40.939Z,100180.49
2019-02-07T07:49:16.477Z,100177.52
2019-02-07T07:51:59.225Z,100189.48
2019-02-07T07:54:36.926Z,100186.66
2019-02-07T07:57:12.654Z,100193.61
2019-02-07T07:59:48.291Z,100188.91
2019-02-07T08:02:25.870Z,100186.86
2019-02-07T08:05:00.325Z,100189.80
2019-02-07T08:07:34.973Z,100176.93
2019-02-07T08:10:12.306Z,100179.31
2019-02-07T08:12:47.167Z,100173.69
2019-02-07T08:15:21.551Z,100184.01
2019-02-07T08:17:56.017Z,100184.14
2019-02-07T08:20:30.644Z,100183.02
2019-02-07T08:23:05.032Z,100199.94
2019-02-07T08:26:00.846Z,100186.02
2019-02-07T08:28:37.276Z,100186.20
2019-02-07T08:31:12.926Z,100180.80
2019-02-07T08:33:50.059Z,100182.78
2019-02-07T08:36:25.173Z,100183.41
2019-02-07T08:39:02.953Z,100185.61
2019-02-07T08:41:40.313Z,100180.80
2019-02-07T08:44:15.626Z,100183.14
2019-02-07T08:46:50.635Z,100178.22
2019-02-07T08:49:27.486Z,100188.05
2019-02-07T08:52:03.523Z,100178.60
2019-02-07T08:54:38.871Z,100180.45
2019-02-07T08:57:14.238Z,100184.12
2019-02-07T08:59:49.822Z,100186.61
2019-02-07T09:02:25.457Z,100196.95
2019-02-07T09:05:04.031Z,100197.08
2019-02-07T09:07:39.293Z,100193.77
2019-02-07T09:10:19.343Z,100190.30
2019-02-07T09:12:55.302Z,100192.45
2019-02-07T09:15:31.155Z,100192.17
2019-02-07T09:18:10.281Z,100200.30
2019-02-07T09:20:44.663Z,100193.12
2019-02-07T09:23:20.121Z,100188.06
2019-02-07T09:25:56.943Z,100194.36
2019-02-07T09:28:35.648Z,100203.16
2019-02-07T09:31:11.708Z,100202.79
2019-02-07T09:33:49.899Z,100196.27
2019-02-07T09:36:28.241Z,100207.94
2019-02-07T09:39:05.972Z,100207.59
2019-02-07T09:41:41.381Z,100208.77
2019-02-07T09:44:17.416Z,100219.57
2019-02-07T09:46:53.212Z,100203.23
2019-02-07T09:49:32.938Z,100211.66
2019-02-07T09:52:11.537Z,100213.65
2019-02-07T09:54:47.125Z,100219.48
2019-02-07T09:57:22.410Z,100216.88
2019-02-07T10:00:00.396Z,100214.75
2019-02-07T10:02:37.038Z,100216.48
2019-02-07T10:05:16.367Z,100217.80
2019-02-07T10:07:56.096Z,100212.92
2019-02-07T10:10:31.915Z,100211.55
2019-02-07T10:13:08.119Z,100218.92
2019-02-07T10:15:46.503Z,100223.23
2019-02-07T10:18:32.819Z,100229.41
2019-02-07T10:21:03.648Z,100234.36
2019-02-07T10:23:41.992Z,100230.90
2019-02-07T10:26:17.221Z,100226.31
2019-02-07T10:28:53.020Z,100213.20
2019-02-07T10:31:33.414Z,100219.02
2019-02-07T10:34:09.190Z,100213.23
2019-02-07T10:36:44.318Z,100216.26
2019-02-07T10:39:20.132Z,100216.26
2019-02-07T10:41:55.994Z,100215.95
2019-02-07T10:44:34.498Z,100220.72
2019-02-07T10:47:12.951Z,100219.50
2019-02-07T10:49:58.673Z,100213.33
2019-02-07T10:52:24.588Z,100215.06
2019-02-07T10:55:00.830Z,100221.97
2019-02-07T10:57:37.376Z,100215.95
2019-02-07T11:00:26.488Z,100206.42
2019-02-07T11:03:11.770Z,100211.08
2019-02-07T11:05:49.452Z,100216.13
2019-02-07T11:08:28.425Z,100214.10
2019-02-07T11:11:03.743Z,100214.69
2019-02-07T11:13:38.412Z,100223.81
2019-02-07T11:16:13.026Z,100221.66
2019-02-07T11:18:55.231Z,100223.25
2019-02-07T11:21:25.290Z,100218.41
2019-02-07T11:24:03.823Z,100222.31
2019-02-07T11:26:42.146Z,100224.25
2019-02-07T11:29:20.077Z,100224.25
2019-02-07T11:31:55.165Z,100217.50
2019-02-07T11:34:30.462Z,100221.91
2019-02-07T11:37:08.120Z,100221.45
2019-02-07T11:39:48.902Z,100214.23
2019-02-07T11:42:23.918Z,100234.83
2019-02-07T11:44:59.281Z,100236.16
2019-02-07T11:47:34.909Z,100237.92
2019-02-07T11:50:12.820Z,100237.91
2019-02-07T11:52:54.304Z,100235.12
2019-02-07T11:55:25.462Z,100228.28
2019-02-07T11:58:01.504Z,100227.55
2019-02-07T12:00:36.613Z,100232.58
2019-02-07T12:03:12.436Z,100237.00
2019-02-07T12:06:08.652Z,100236.16
2019-02-07T12:08:42.938Z,100232.11
2019-02-07T12:11:19.604Z,100234.45
2019-02-07T12:13:54.549Z,100231.19
2019-02-07T12:16:32.819Z,100231.56
2019-02-07T12:19:17.772Z,100236.98
2019-02-07T12:21:45.760Z,100232.06
2019-02-07T12:24:26.465Z,100235.52
2019-02-07T12:27:01.779Z,100236.52
2019-02-07T12:29:44.332Z,100234.09
2019-02-07T12:32:24.132Z,100240.13
2019-02-07T12:35:02.913Z,100244.45
2019-02-07T12:37:39.354Z,100250.77
2019-02-07T12:40:17.917Z,100251.39
2019-02-07T12:42:56.471Z,100250.68
2019-02-07T12:45:35.132Z,100246.08
2019-02-07T12:48:10.694Z,100251.61
2019-02-07T12:50:47.397Z,100254.41
2019-02-07T12:53:24.573Z,100255.25
2019-02-07T12:56:01.319Z,100267.87
2019-02-07T12:58:36.072Z,100272.56
2019-02-07T13:01:15.144Z,100269.66
2019-02-07T13:03:53.145Z,100272.20
2019-02-07T13:06:29.132Z,100271.90
2019-02-07T13:09:10.512Z,100278.65
2019-02-07T13:11:43.718Z,100274.64
2019-02-07T13:14:18.895Z,100273.80
2019-02-07T13:16:58.152Z,100281.27
2019-02-07T13:19:39.940Z,100272.19
2019-02-07T13:22:10.182Z,100280.05
2019-02-07T13:24:45.110Z,100280.14
2019-02-07T13:27:25.211Z,100284.62
2019-02-07T13:30:01.243Z,100284.83
2019-02-07T13:32:43.024Z,100283.98
2019-02-07T13:35:18.875Z,100282.30
2019-02-07T13:37:53.796Z,100278.83
2019-02-07T13:40:37.732Z,100279.67
2019-02-07T13:43:13.890Z,100273.04
2019-02-07T13:45:48.963Z,100281.45
2019-02-07T13:48:24.498Z,100279.04
2019-02-07T13:51:08.209Z,100279.59
2019-02-07T13:53:43.319Z,100273.59
2019-02-07T13:56:24.330Z,100278.20
2019-02-07T13:59:00.797Z,100278.45
2019-02-07T14:01:40.845Z,100282.76
2019-02-07T14:04:15.832Z,100278.20
2019-02-07T14:06:55.228Z,100274.53
2019-02-07T14:09:27.956Z,100286.24
2019-02-07T14:12:07.332Z,100286.68
2019-02-07T14:14:43.730Z,100289.98
2019-02-07T14:17:21.500Z,100282.13
2019-02-07T14:20:03.871Z,100283.89
2019-02-07T14:22:35.616Z,100289.22
2019-02-07T14:25:15.877Z,100292.50
2019-02-07T14:27:51.256Z,100301.85
2019-02-07T14:30:29.366Z,100304.56
2019-02-07T14:33:04.069Z,100304.56
2019-02-07T14:35:52.418Z,100306.61
2019-02-07T14:38:30.550Z,100297.07
2019-02-07T14:41:06.293Z,100302.38
2019-02-07T14:43:41.008Z,100301.84
2019-02-07T14:46:27.263Z,100306.23
2019-02-07T14:48:57.926Z,100306.52
2019-02-07T14:51:35.810Z,100312.78
2019-02-07T14:54:14.095Z,100311.77
2019-02-07T14:56:51.233Z,100312.78
2019-02-07T14:59:27.447Z,100312.87
2019-02-07T15:02:12.687Z,100299.69
2019-02-07T15:04:50.691Z,100305.23
2019-02-07T15:07:25.372Z,100314.45
2019-02-07T15:10:07.894Z,100313.64
2019-02-07T15:12:45.320Z,100322.04
2019-02-07T15:15:30.345Z,100314.95
2019-02-07T15:18:05.731Z,100324.11
2019-02-07T15:20:50.409Z,100320.63
2019-02-07T15:23:25.153Z,100319.52
2019-02-07T15:26:09.463Z,100325.77
2019-02-07T15:28:44.183Z,100330.45
2019-02-07T15:31:23.182Z,100330.51
2019-02-07T15:33:58.778Z,100329.59
2019-02-07T15:36:38.659Z,100334.41
2019-02-07T15:39:17.954Z,100341.87
2019-02-07T15:41:57.867Z,100335.78
2019-02-07T15:44:36.417Z,100337.88
2019-02-07T15:47:14.971Z,100333.89
2019-02-07T15:49:52.632Z,100336.95
2019-02-07T15:52:36.067Z,100331.33
2019-02-07T15:55:15.508Z,100324.33
2019-02-07T15:57:56.235Z,100327.12
2019-02-07T16:00:35.438Z,100326.18
2019-02-07T16:03:08.602Z,100327.95
2019-02-07T16:05:45.545Z,100329.73
2019-02-07T16:08:18.503Z,100324.89
2019-02-07T16:10:56.674Z,100329.58
2019-02-07T16:13:35.385Z,100313.04
2019-02-07T16:16:12.670Z,100308.75
2019-02-07T16:18:50.679Z,100307.06
2019-02-07T16:21:22.195Z,100320.79
2019-02-07T16:24:01.646Z,100320.50
2019-02-07T16:26:40.620Z,100315.95
2019-02-07T16:29:18.701Z,100315.20
2019-02-07T16:32:03.811Z,100313.72
2019-02-07T16:34:39.389Z,100313.04
2019-02-07T16:37:42.460Z,100308.84
2019-02-07T16:40:14.178Z,100317.41
2019-02-07T16:42:31.310Z,100321.27
2019-02-07T16:45:17.680Z,100321.83
2019-02-07T16:47:47.149Z,100326.14
2019-02-07T16:50:37.630Z,100325.11
2019-02-07T16:53:13.845Z,100325.53
2019-02-07T16:55:53.872Z,100329.08
2019-02-07T16:58:32.124Z,100331.53
2019-02-07T17:01:11.158Z,100335.91
2019-02-07T17:03:46.358Z,100337.22
2019-02-07T17:06:27.129Z,100338.06
2019-02-07T17:09:05.213Z,100341.77
2019-02-07T17:11:42.386Z,100350.08
2019-02-07T17:14:17.257Z,100351.39
2019-02-07T17:16:55.700Z,100350.82
2019-02-07T17:19:41.847Z,100347.05
2019-02-07T17:22:17.773Z,100343.77
2019-02-07T17:24:57.336Z,100344.96
2019-02-07T17:27:34.679Z,100348.26
2019-02-07T17:30:07.303Z,100348.66
2019-02-07T17:32:44.839Z,100352.00
2019-02-07T17:35:25.592Z,100358.80
2019-02-07T17:38:04.015Z,100359.30
2019-02-07T17:40:44.123Z,100357.00
2019-02-07T17:43:22.043Z,100354.27
2019-02-07T17:46:00.539Z,100351.81
2019-02-07T17:48:38.598Z,100349.80
2019-02-07T17:51:22.921Z,100354.11
2019-02-07T17:53:51.628Z,100351.43
2019-02-07T17:56:32.287Z,100346.66
2019-02-07T17:59:06.297Z,100345.36
2019-02-07T18:01:44.321Z,100349.23
2019-02-07T18:04:16.737Z,100350.20
2019-02-07T18:06:54.449Z,100354.73
2019-02-07T18:09:29.262Z,100342.63
2019-02-07T18:12:04.337Z,100342.28
2019-02-07T18:14:41.804Z,100344.12
2019-02-07T18:17:24.900Z,100358.62
2019-02-07T18:20:05.438Z,100357.12
2019-02-07T18:22:41.062Z,100363.46
2019-02-07T18:25:22.970Z,100345.59
2019-02-07T18:27:55.350Z,100353.62
2019-02-07T18:30:33.597Z,100344.28
2019-02-07T18:33:06.681Z,100349.31
2019-02-07T18:35:47.057Z,100342.67
2019-02-07T18:38:25.411Z,100345.59
2019-02-07T18:41:11.580Z,100348.27
2019-02-07T18:43:49.938Z,100350.96
2019-02-07T18:46:24.062Z,100352.33
2019-02-07T18:48:58.714Z,100360.83
2019-02-07T18:51:44.941Z,100360.98
2019-02-07T18:54:10.036Z,100353.44
2019-02-07T18:56:44.549Z,100357.97
2019-02-07T18:59:21.763Z,100356.23
2019-02-07T19:01:59.987Z,100354.95
2019-02-07T19:04:34.793Z,100354.95
2019-02-07T19:07:12.499Z,100349.03
2019-02-07T19:09:47.268Z,100344.73
2019-02-07T19:12:21.539Z,100347.81
2019-02-07T19:15:12.862Z,100354.28
2019-02-07T19:17:31.505Z,100358.13
2019-02-07T19:20:07.312Z,100352.41
2019-02-07T19:22:41.803Z,100352.29
2019-02-07T19:25:16.839Z,100346.95
2019-02-07T19:27:52.342Z,100345.66
2019-02-07T19:30:34.701Z,100359.45
2019-02-07T19:33:14.116Z,100359.45
2019-02-07T19:35:45.106Z,100362.33
2019-02-07T19:38:19.778Z,100358.46
2019-02-07T19:40:54.341Z,100366.09
2019-02-07T19:43:30.656Z,100358.72
2019-02-07T19:46:05.404Z,100363.77
2019-02-07T19:48:40.146Z,100361.48
2019-02-07T19:51:16.974Z,100354.44
2019-02-07T19:53:51.805Z,100355.59
2019-02-07T19:56:28.616Z,100363.84
2019-02-07T19:59:03.583Z,100362.41
2019-02-07T20:01:40.113Z,100360.31
2019-02-07T20:04:17.510Z,100362.16
2019-02-07T20:06:52.480Z,100359.81
2019-02-07T20:09:27.452Z,100357.39
2019-02-07T20:12:02.596Z,100355.08
2019-02-07T20:14:37.930Z,100349.29
2019-02-07T20:17:14.219Z,100352.29
2019-02-07T20:19:48.849Z,100356.94
2019-02-07T20:22:25.767Z,100358.59
2019-02-07T20:25:02.746Z,100366.28
2019-02-07T20:27:39.062Z,100353.63
2019-02-07T20:30:46.349Z,100354.66
2019-02-07T20:33:21.228Z,100359.56
2019-02-07T20:35:56.268Z,100358.91
2019-02-07T20:38:31.445Z,100351.55
2019-02-07T20:41:06.259Z,100354.09
2019-02-07T20:43:40.759Z,100353.28
2019-02-07T20:46:15.698Z,100349.05
2019-02-07T20:48:50.424Z,100343.77
2019-02-07T20:51:25.669Z,100334.38
2019-02-07T20:54:01.481Z,100332.34
2019-02-07T20:56:37.149Z,100334.81
2019-02-07T20:59:11.787Z,100330.09
2019-02-07T21:01:47.951Z,100333.02
2019-02-07T21:04:22.711Z,100331.32
2019-02-07T21:06:57.137Z,100333.37
2019-02-07T21:09:31.928Z,100337.45
2019-02-07T21:12:07.216Z,100333.69
2019-02-07T21:14:43.515Z,100330.94
2019-02-07T21:17:18.728Z,100336.08
2019-02-07T21:19:52.297Z,100333.02
2019-02-07T21:22:26.305Z,100336.78
2019-02-07T21:24:59.810Z,100346.12
2019-02-07T21:27:35.281Z,100336.16
2019-02-07T21:30:12.881Z,100332.98
2019-02-07T21:32:46.792Z,100320.19
2019-02-07T21:35:22.185Z,100321.49
2019-02-07T21:37:55.866Z,100331.85
2019-02-07T21:40:32.170Z,100326.56
2019-02-07T21:43:06.392Z,100342.13
2019-02-07T21:45:41.931Z,100341.23
2019-02-07T21:48:15.670Z,100339.77
2019-02-07T21:50:49.133Z,100334.41
2019-02-07T21:53:22.767Z,100337.86
2019-02-07T21:55:58.050Z,100335.95
2019-02-07T21:58:34.315Z,100340.97
2019-02-07T22:01:09.310Z,100348.73
2019-02-07T22:03:43.033Z,100348.73
2019-02-07T22:06:17.056Z,100345.73
2019-02-07T22:08:50.708Z,100344.59
2019-02-07T22:11:24.327Z,100336.17
2019-02-07T22:13:57.982Z,100346.75
2019-02-07T22:16:31.784Z,100346.53
2019-02-07T22:19:05.481Z,100347.67
2019-02-07T22:21:39.144Z,100348.73
2019-02-07T22:24:12.598Z,100348.11
2019-02-07T22:26:47.383Z,100348.60
2019-02-07T22:29:21.262Z,100344.14
2019-02-07T22:31:54.826Z,100347.59
2019-02-07T22:34:28.437Z,100344.51
2019-02-07T22:37:02.069Z,100344.29
2019-02-07T22:39:35.461Z,100343.66
2019-02-07T22:42:09.137Z,100339.36
2019-02-07T22:44:42.784Z,100340.23
2019-02-07T22:47:16.358Z,100340.44
2019-02-07T22:49:50.037Z,100347.98
2019-02-07T22:52:23.891Z,100352.02
2019-02-07T22:54:57.453Z,100347.80
2019-02-07T22:57:31.566Z,100360.10
2019-02-07T23:00:25.745Z,100358.25
2019-02-07T23:03:01.058Z,100354.95
2019-02-07T23:05:36.116Z,100350.97
2019-02-07T23:08:11.503Z,100364.46
2019-02-07T23:10:46.258Z,100360.70
2019-02-07T23:13:19.980Z,100356.72
2019-02-07T23:15:53.725Z,100358.00
2019-02-07T23:18:27.208Z,100362.69
2019-02-07T23:21:04.624Z,100366.16
2019-02-07T23:23:38.207Z,100371.12
2019-02-07T23:26:11.672Z,100359.92
2019-02-07T23:28:45.209Z,100363.08
2019-02-07T23:31:20.774Z,100364.77
2019-02-07T23:33:54.396Z,100358.70
2019-02-07T23:36:28.161Z,100350.70
2019-02-07T23:39:01.790Z,100359.91
2019-02-07T23:41:38.980Z,100364.67
2019-02-07T23:44:13.395Z,100365.20
2019-02-07T23:46:46.960Z,100367.84
2019-02-07T23:49:20.580Z,100372.67
2019-02-07T23:51:54.241Z,100374.35
2019-02-07T23:54:27.773Z,100377.91
2019-02-07T23:57:01.295Z,100374.14
2019-02-07T23:59:34.839Z,100373.69
